Observations for MILDENHALL RAF, United Kingdom (EGUN)

EGUN 230956Z AUTO 30008KT 9999 CLR 19/10 A3035 RMK AO2 RAB52 SLP281 P0000 T01860102 $   
EGUN 230856Z AUTO 30007KT 9999 CLR 17/11 A3036 RMK AO2 SLP284 T01690105 56002 $ 
EGUN 230756Z AUTO 31007KT 9999 CLR 16/11 A3036 RMK AO2 SLP284 T01550107 $   
EGUN 230656Z AUTO 28006KT 9999 CLR 14/11 A3036 RMK AO2 SLP284 T01350112 $   
EGUN 230556Z AUTO 27006KT 9999 CLR 12/12 A3037 RMK AO2 SLP287 60000 T01160116 10116 20089 58001 $   
EGUN 230456Z AUTO 22004KT 9999 CLR 10/10 A3036 RMK AO2 SLP284 T00950095 $   
EGUN 230356Z AUTO 00000KT 9999 CLR 09/09 A3037 RMK AO2 SLP287 T00900090 $   
EGUN 230256Z AUTO 24005KT 9999 CLR 10/10 A3037 RMK AO2 RAB0156E10RAB19E23DZB24E27RAB27E37 SLP287 P0000 60000 T00990099 57008 $  
EGUN 230156Z AUTO 18004KT 9999 CLR 10/10 A3037 RMK AO2 RAB41E49RAB53 SLP287 P0000 T01000100 $   
EGUN 230056Z AUTO 25004KT 9999 CLR 10/10 A3038 RMK AO2 SLP291 T01010101 $   
EGUN 222356Z AUTO 19003KT 9999 CLR 11/11 A3039 RMK AO2 RAB12E16 SLP294 P0000 60000 T01070107 10190 20107 402040063 55002 $  
EGUN 222256Z AUTO 19005KT 9999 CLR 12/12 A3040 RMK AO2 SLP298 T01170117 $   
EGUN 222156Z AUTO 17007KT 9999 CLR 13/13 A3039 RMK AO2 SLP294 T01270125 $   
EGUN 222056Z AUTO 15005KT 9999 CLR 14/04 A3040 RMK AO2 RAB40E48 SLP298 P0000 60000 T01400035 58000 $
EGUN 221956Z AUTO 11006KT 9999 CLR 15/04 A3039 RMK AO2 SLP294 T01530037 $   
EGUN 221856Z AUTO 02003KT 9999 CLR 18/03 A3040 RMK AO2 SLP298 T01820025 $   
EGUN 221756Z AUTO 08003KT 9999 CLR 19/02 A3040 RMK AO2 SLP298 T01870021 10204 20183 58003 $ 
EGUN 221656Z AUTO 35007KT 9999 CLR 19/03 A3041 RMK AO2 SLP301 T01900032 $   
EGUN 221556Z AUTO 36009KT 9999 CLR 20/03 A3041 RMK AO2 SLP301 T02040027 $   
EGUN 221456Z AUTO 36003KT 9999 CLR 20/03 A3041 RMK AO2 SLP301 T02010029 57005 $ 
EGUN 221405Z AUTO 02012G18KT 9999 CLR 20/04 A3041 RMK AO2 WSHFT 02 SLP301 $
EGUN 221356Z AUTO 01006G15KT 9999 CLR 20/05 A3041 RMK AO2 SLP301 T02010046 $
EGUN 221256Z AUTO 36013G17KT 9999 CLR 19/06 A3042 RMK AO2 SLP304 T01920056 $
EGUN 221156Z AUTO 01009G15KT 9999 CLR 18/06 A3042 RMK AO2 SLP304 T01840056 10185 20112 50001 $  
EGUN 221056Z AUTO 32008G16KT 9999 CLR 18/05 A3042 RMK AO2 SLP304 T01800045 $
EGUN 220956Z AUTO 36010G15KT 9999 CLR 18/07 A3042 RMK AO2 SLP304 T01750070 $